sensor_id;sensor_type;location;lat;lon;timestamp;temperature;humidity
37050;DHT22;22958;51.232;6.826;2023-03-14T00:01:50;12.10;99.90
37050;DHT22;22958;51.232;6.826;2023-03-14T00:04:16;12.10;99.90
37050;DHT22;22958;51.232;6.826;2023-03-14T00:06:41;12.20;99.90
37050;DHT22;22958;51.232;6.826;2023-03-14T00:09:07;12.20;99.90
37050;DHT22;22958;51.232;6.826;2023-03-14T00:11:33;12.20;99.90
37050;DHT22;22958;51.232;6.826;2023-03-14T00:13:58;12.10;99.90
37050;DHT22;22958;51.232;6.826;2023-03-14T00:16:25;12.20;99.90
37050;DHT22;22958;51.232;6.826;2023-03-14T00:18:51;12.10;99.90
37050;DHT22;22958;51.232;6.826;2023-03-14T00:21:17;12.10;99.90
37050;DHT22;22958;51.232;6.826;2023-03-14T00:23:43;12.10;99.90
37050;DHT22;22958;51.232;6.826;2023-03-14T00:26:12;12.10;99.90
37050;DHT22;22958;51.232;6.826;2023-03-14T00:28:38;12.10;99.90
37050;DHT22;22958;51.232;6.826;2023-03-14T00:31:05;12.10;99.90
37050;DHT22;22958;51.232;6.826;2023-03-14T00:33:31;12.10;99.90
37050;DHT22;22958;51.232;6.826;2023-03-14T00:35:59;12.10;99.90
37050;DHT22;22958;51.232;6.826;2023-03-14T00:38:26;12.10;99.90
37050;DHT22;22958;51.232;6.826;2023-03-14T00:40:52;12.10;99.90
37050;DHT22;22958;51.232;6.826;2023-03-14T00:43:18;11.70;99.90
37050;DHT22;22958;51.232;6.826;2023-03-14T00:45:43;11.20;99.90
37050;DHT22;22958;51.232;6.826;2023-03-14T00:48:09;10.70;99.90
37050;DHT22;22958;51.232;6.826;2023-03-14T00:50:35;10.40;99.90
37050;DHT22;22958;51.232;6.826;2023-03-14T00:53:00;10.30;99.90
37050;DHT22;22958;51.232;6.826;2023-03-14T00:55:26;10.20;99.90
37050;DHT22;22958;51.232;6.826;2023-03-14T00:57:51;10.20;99.90
37050;DHT22;22958;51.232;6.826;2023-03-14T01:00:17;10.20;99.90
37050;DHT22;22958;51.232;6.826;2023-03-14T01:02:43;10.10;99.90
37050;DHT22;22958;51.232;6.826;2023-03-14T01:05:08;10.00;99.90
37050;DHT22;22958;51.232;6.826;2023-03-14T01:07:36;9.90;99.90
37050;DHT22;22958;51.232;6.826;2023-03-14T01:10:02;9.80;99.90
37050;DHT22;22958;51.232;6.826;2023-03-14T01:12:28;9.60;99.90
37050;DHT22;22958;51.232;6.826;2023-03-14T01:14:54;9.60;99.90
37050;DHT22;22958;51.232;6.826;2023-03-14T01:17:19;9.60;99.90
37050;DHT22;22958;51.232;6.826;2023-03-14T01:19:45;9.50;99.90
37050;DHT22;22958;51.232;6.826;2023-03-14T01:22:10;9.40;99.90
37050;DHT22;22958;51.232;6.826;2023-03-14T01:24:37;9.40;99.90
37050;DHT22;22958;51.232;6.826;2023-03-14T01:27:02;9.40;99.90
37050;DHT22;22958;51.232;6.826;2023-03-14T01:29:28;9.40;99.90
37050;DHT22;22958;51.232;6.826;2023-03-14T01:31:53;9.40;99.90
37050;DHT22;22958;51.232;6.826;2023-03-14T01:34:19;9.30;99.90
37050;DHT22;22958;51.232;6.826;2023-03-14T01:36:44;9.40;99.90
37050;DHT22;22958;51.232;6.826;2023-03-14T01:39:10;9.40;99.90
37050;DHT22;22958;51.232;6.826;2023-03-14T01:41:35;9.50;99.90
37050;DHT22;22958;51.232;6.826;2023-03-14T01:44:01;9.60;99.90
37050;DHT22;22958;51.232;6.826;2023-03-14T01:46:43;9.60;99.90
37050;DHT22;22958;51.232;6.826;2023-03-14T01:49:29;9.70;99.90
37050;DHT22;22958;51.232;6.826;2023-03-14T01:54:36;9.90;99.90
37050;DHT22;22958;51.232;6.826;2023-03-14T02:00:07;10.00;99.90
37050;DHT22;22958;51.232;6.826;2023-03-14T02:02:37;10.10;99.90
37050;DHT22;22958;51.232;6.826;2023-03-14T02:05:05;10.10;99.90
37050;DHT22;22958;51.232;6.826;2023-03-14T02:07:41;10.10;99.90
37050;DHT22;22958;51.232;6.826;2023-03-14T02:10:11;10.10;99.90
37050;DHT22;22958;51.232;6.826;2023-03-14T02:12:37;10.20;99.90
37050;DHT22;22958;51.232;6.826;2023-03-14T02:15:03;10.20;99.90
37050;DHT22;22958;51.232;6.826;2023-03-14T02:17:29;10.10;99.90
37050;DHT22;22958;51.232;6.826;2023-03-14T02:19:57;10.20;99.90
37050;DHT22;22958;51.232;6.826;2023-03-14T02:22:26;10.20;99.90
37050;DHT22;22958;51.232;6.826;2023-03-14T02:25:17;10.20;99.90
37050;DHT22;22958;51.232;6.826;2023-03-14T02:27:46;10.20;99.90
37050;DHT22;22958;51.232;6.826;2023-03-14T02:30:17;10.20;99.90
37050;DHT22;22958;51.232;6.826;2023-03-14T02:32:48;10.20;99.90
37050;DHT22;22958;51.232;6.826;2023-03-14T02:35:18;10.20;99.90
37050;DHT22;22958;51.232;6.826;2023-03-14T02:37:53;10.20;99.90
37050;DHT22;22958;51.232;6.826;2023-03-14T02:40:19;10.20;99.90
37050;DHT22;22958;51.232;6.826;2023-03-14T02:42:45;10.20;99.90
37050;DHT22;22958;51.232;6.826;2023-03-14T02:47:43;10.10;99.90
37050;DHT22;22958;51.232;6.826;2023-03-14T02:50:16;10.20;99.90
37050;DHT22;22958;51.232;6.826;2023-03-14T02:52:42;10.20;99.90
37050;DHT22;22958;51.232;6.826;2023-03-14T02:55:08;10.20;99.90
37050;DHT22;22958;51.232;6.826;2023-03-14T02:57:33;10.20;99.90
37050;DHT22;22958;51.232;6.826;2023-03-14T03:00:00;10.10;99.90
37050;DHT22;22958;51.232;6.826;2023-03-14T03:02:26;10.10;99.90
37050;DHT22;22958;51.232;6.826;2023-03-14T03:04:52;10.10;99.90
37050;DHT22;22958;51.232;6.826;2023-03-14T03:07:18;10.10;99.90
37050;DHT22;22958;51.232;6.826;2023-03-14T03:09:44;10.10;99.90
37050;DHT22;22958;51.232;6.826;2023-03-14T03:12:10;10.10;99.90
37050;DHT22;22958;51.232;6.826;2023-03-14T03:14:35;10.10;99.90
37050;DHT22;22958;51.232;6.826;2023-03-14T03:17:03;10.10;99.90
37050;DHT22;22958;51.232;6.826;2023-03-14T03:19:29;10.10;99.90
37050;DHT22;22958;51.232;6.826;2023-03-14T03:21:54;10.10;99.90
37050;DHT22;22958;51.232;6.826;2023-03-14T03:24:20;10.10;99.90
37050;DHT22;22958;51.232;6.826;2023-03-14T03:26:45;10.00;99.90
37050;DHT22;22958;51.232;6.826;2023-03-14T03:29:11;10.00;99.90
37050;DHT22;22958;51.232;6.826;2023-03-14T03:31:37;10.00;99.90
37050;DHT22;22958;51.232;6.826;2023-03-14T03:34:03;9.90;99.90
37050;DHT22;22958;51.232;6.826;2023-03-14T03:36:29;9.80;99.90
37050;DHT22;22958;51.232;6.826;2023-03-14T03:38:54;9.80;99.90
37050;DHT22;22958;51.232;6.826;2023-03-14T03:41:20;9.80;99.90
37050;DHT22;22958;51.232;6.826;2023-03-14T03:43:45;9.70;99.90
37050;DHT22;22958;51.232;6.826;2023-03-14T03:46:11;9.60;99.90
37050;DHT22;22958;51.232;6.826;2023-03-14T03:48:36;9.60;99.90
37050;DHT22;22958;51.232;6.826;2023-03-14T03:51:02;9.60;99.90
37050;DHT22;22958;51.232;6.826;2023-03-14T03:53:28;9.60;99.90
37050;DHT22;22958;51.232;6.826;2023-03-14T03:55:53;9.60;99.90
37050;DHT22;22958;51.232;6.826;2023-03-14T03:58:19;9.50;99.90
37050;DHT22;22958;51.232;6.826;2023-03-14T04:00:44;9.60;99.90
37050;DHT22;22958;51.232;6.826;2023-03-14T04:03:10;9.50;99.90
37050;DHT22;22958;51.232;6.826;2023-03-14T04:05:35;9.50;99.90
37050;DHT22;22958;51.232;6.826;2023-03-14T04:08:02;9.50;99.90
37050;DHT22;22958;51.232;6.826;2023-03-14T04:10:28;9.50;99.90
37050;DHT22;22958;51.232;6.826;2023-03-14T04:12:54;9.50;99.90
37050;DHT22;22958;51.232;6.826;2023-03-14T04:15:19;9.50;99.90
37050;DHT22;22958;51.232;6.826;2023-03-14T04:17:45;9.50;99.90
37050;DHT22;22958;51.232;6.826;2023-03-14T04:20:11;9.50;99.90
37050;DHT22;22958;51.232;6.826;2023-03-14T04:22:38;9.40;99.90
37050;DHT22;22958;51.232;6.826;2023-03-14T04:25:03;9.40;99.90
37050;DHT22;22958;51.232;6.826;2023-03-14T04:27:29;9.40;99.90
37050;DHT22;22958;51.232;6.826;2023-03-14T04:29:55;9.40;99.90
37050;DHT22;22958;51.232;6.826;2023-03-14T04:32:20;9.40;99.90
37050;DHT22;22958;51.232;6.826;2023-03-14T04:34:46;9.30;99.90
37050;DHT22;22958;51.232;6.826;2023-03-14T04:37:12;9.30;99.90
37050;DHT22;22958;51.232;6.826;2023-03-14T04:39:37;9.20;99.90
37050;DHT22;22958;51.232;6.826;2023-03-14T04:42:03;9.20;99.90
37050;DHT22;22958;51.232;6.826;2023-03-14T04:44:28;9.20;99.90
37050;DHT22;22958;51.232;6.826;2023-03-14T04:46:54;9.20;99.90
37050;DHT22;22958;51.232;6.826;2023-03-14T04:49:20;9.20;99.90
37050;DHT22;22958;51.232;6.826;2023-03-14T04:51:45;9.20;99.90
37050;DHT22;22958;51.232;6.826;2023-03-14T04:54:11;9.20;99.90
37050;DHT22;22958;51.232;6.826;2023-03-14T04:56:36;9.20;99.90
37050;DHT22;22958;51.232;6.826;2023-03-14T04:59:03;9.20;99.90
37050;DHT22;22958;51.232;6.826;2023-03-14T05:01:28;9.20;99.90
37050;DHT22;22958;51.232;6.826;2023-03-14T05:03:54;9.20;99.90
37050;DHT22;22958;51.232;6.826;2023-03-14T05:06:19;9.30;99.90
37050;DHT22;22958;51.232;6.826;2023-03-14T05:08:45;9.30;99.90
37050;DHT22;22958;51.232;6.826;2023-03-14T05:11:11;9.20;99.90
37050;DHT22;22958;51.232;6.826;2023-03-14T05:13:38;9.30;99.90
37050;DHT22;22958;51.232;6.826;2023-03-14T05:16:08;9.30;99.90
37050;DHT22;22958;51.232;6.826;2023-03-14T05:18:34;9.30;99.90
37050;DHT22;22958;51.232;6.826;2023-03-14T05:21:00;9.30;99.90
37050;DHT22;22958;51.232;6.826;2023-03-14T05:23:26;9.40;99.90
37050;DHT22;22958;51.232;6.826;2023-03-14T05:25:52;9.40;99.90
37050;DHT22;22958;51.232;6.826;2023-03-14T05:28:18;9.40;99.90
37050;DHT22;22958;51.232;6.826;2023-03-14T05:30:43;9.40;99.90
37050;DHT22;22958;51.232;6.826;2023-03-14T05:33:09;9.40;99.90
37050;DHT22;22958;51.232;6.826;2023-03-14T05:35:34;9.50;99.90
37050;DHT22;22958;51.232;6.826;2023-03-14T05:38:00;9.50;99.90
37050;DHT22;22958;51.232;6.826;2023-03-14T05:40:25;9.50;99.90
37050;DHT22;22958;51.232;6.826;2023-03-14T05:42:51;9.60;99.90
37050;DHT22;22958;51.232;6.826;2023-03-14T05:45:17;9.60;99.90
37050;DHT22;22958;51.232;6.826;2023-03-14T05:47:43;9.70;99.90
37050;DHT22;22958;51.232;6.826;2023-03-14T05:50:09;9.80;99.90
37050;DHT22;22958;51.232;6.826;2023-03-14T05:52:34;9.70;99.90
37050;DHT22;22958;51.232;6.826;2023-03-14T05:55:00;9.70;99.90
37050;DHT22;22958;51.232;6.826;2023-03-14T05:57:26;9.80;99.90
37050;DHT22;22958;51.232;6.826;2023-03-14T05:59:51;9.90;99.90
37050;DHT22;22958;51.232;6.826;2023-03-14T06:02:17;9.90;99.90
37050;DHT22;22958;51.232;6.826;2023-03-14T06:04:42;9.90;99.90
37050;DHT22;22958;51.232;6.826;2023-03-14T06:07:08;9.90;99.90
37050;DHT22;22958;51.232;6.826;2023-03-14T06:09:33;10.00;99.90
37050;DHT22;22958;51.232;6.826;2023-03-14T06:11:58;10.00;99.90
37050;DHT22;22958;51.232;6.826;2023-03-14T06:14:24;10.00;99.90
37050;DHT22;22958;51.232;6.826;2023-03-14T06:16:51;10.10;99.90
37050;DHT22;22958;51.232;6.826;2023-03-14T06:19:17;10.10;99.90
37050;DHT22;22958;51.232;6.826;2023-03-14T06:21:43;10.10;99.90
37050;DHT22;22958;51.232;6.826;2023-03-14T06:24:09;10.20;99.90
37050;DHT22;22958;51.232;6.826;2023-03-14T06:26:34;10.20;99.90
37050;DHT22;22958;51.232;6.826;2023-03-14T06:29:00;10.20;99.90
37050;DHT22;22958;51.232;6.826;2023-03-14T06:31:29;10.20;99.90
37050;DHT22;22958;51.232;6.826;2023-03-14T06:33:55;10.20;99.90
37050;DHT22;22958;51.232;6.826;2023-03-14T06:36:20;10.30;99.90
37050;DHT22;22958;51.232;6.826;2023-03-14T06:38:46;10.30;99.90
37050;DHT22;22958;51.232;6.826;2023-03-14T06:41:11;10.30;99.90
37050;DHT22;22958;51.232;6.826;2023-03-14T06:43:37;10.30;99.90
37050;DHT22;22958;51.232;6.826;2023-03-14T06:46:02;10.30;99.90
37050;DHT22;22958;51.232;6.826;2023-03-14T06:48:28;10.30;99.90
37050;DHT22;22958;51.232;6.826;2023-03-14T06:50:53;10.40;99.90
37050;DHT22;22958;51.232;6.826;2023-03-14T06:53:19;10.40;99.90
37050;DHT22;22958;51.232;6.826;2023-03-14T06:55:44;10.50;99.90
37050;DHT22;22958;51.232;6.826;2023-03-14T06:58:10;10.50;99.90
37050;DHT22;22958;51.232;6.826;2023-03-14T07:00:36;10.50;99.90
37050;DHT22;22958;51.232;6.826;2023-03-14T07:03:02;10.50;99.90
37050;DHT22;22958;51.232;6.826;2023-03-14T07:05:28;10.50;99.90
37050;DHT22;22958;51.232;6.826;2023-03-14T07:07:53;10.50;99.90
37050;DHT22;22958;51.232;6.826;2023-03-14T07:10:19;10.50;99.90
37050;DHT22;22958;51.232;6.826;2023-03-14T07:12:44;10.60;99.90
37050;DHT22;22958;51.232;6.826;2023-03-14T07:15:10;10.60;99.90
37050;DHT22;22958;51.232;6.826;2023-03-14T07:17:35;10.50;99.90
37050;DHT22;22958;51.232;6.826;2023-03-14T07:20:01;10.40;99.90
37050;DHT22;22958;51.232;6.826;2023-03-14T07:22:28;10.20;99.90
37050;DHT22;22958;51.232;6.826;2023-03-14T07:24:54;10.10;99.90
37050;DHT22;22958;51.232;6.826;2023-03-14T07:27:19;10.10;99.90
37050;DHT22;22958;51.232;6.826;2023-03-14T07:29:45;10.20;99.90
37050;DHT22;22958;51.232;6.826;2023-03-14T07:32:10;10.30;99.90
37050;DHT22;22958;51.232;6.826;2023-03-14T07:34:43;10.40;99.90
37050;DHT22;22958;51.232;6.826;2023-03-14T07:37:10;10.60;99.90
37050;DHT22;22958;51.232;6.826;2023-03-14T07:39:35;10.70;99.90
37050;DHT22;22958;51.232;6.826;2023-03-14T07:42:01;10.70;99.90
37050;DHT22;22958;51.232;6.826;2023-03-14T07:44:26;10.80;99.90
37050;DHT22;22958;51.232;6.826;2023-03-14T07:46:52;10.90;99.90
37050;DHT22;22958;51.232;6.826;2023-03-14T07:49:17;10.90;99.90
37050;DHT22;22958;51.232;6.826;2023-03-14T07:51:43;10.90;99.90
37050;DHT22;22958;51.232;6.826;2023-03-14T07:54:11;10.90;99.90
37050;DHT22;22958;51.232;6.826;2023-03-14T07:56:37;11.00;99.90
37050;DHT22;22958;51.232;6.826;2023-03-14T07:59:02;11.00;99.90
37050;DHT22;22958;51.232;6.826;2023-03-14T08:01:28;11.10;99.90
37050;DHT22;22958;51.232;6.826;2023-03-14T08:03:54;11.20;99.90
37050;DHT22;22958;51.232;6.826;2023-03-14T08:06:19;11.30;99.90
37050;DHT22;22958;51.232;6.826;2023-03-14T08:08:45;11.40;99.90
37050;DHT22;22958;51.232;6.826;2023-03-14T08:11:10;11.50;99.90
37050;DHT22;22958;51.232;6.826;2023-03-14T08:13:37;11.50;99.90
37050;DHT22;22958;51.232;6.826;2023-03-14T08:16:03;11.50;99.90
37050;DHT22;22958;51.232;6.826;2023-03-14T08:18:29;11.50;99.90
37050;DHT22;22958;51.232;6.826;2023-03-14T08:20:55;11.60;99.90
37050;DHT22;22958;51.232;6.826;2023-03-14T08:23:20;11.60;99.90
37050;DHT22;22958;51.232;6.826;2023-03-14T08:25:48;11.60;99.90
37050;DHT22;22958;51.232;6.826;2023-03-14T08:28:15;11.60;99.90
37050;DHT22;22958;51.232;6.826;2023-03-14T08:30:40;11.50;99.90
37050;DHT22;22958;51.232;6.826;2023-03-14T08:33:06;11.40;99.90
37050;DHT22;22958;51.232;6.826;2023-03-14T08:35:31;11.40;99.90
37050;DHT22;22958;51.232;6.826;2023-03-14T08:37:57;11.50;99.90
37050;DHT22;22958;51.232;6.826;2023-03-14T08:40:22;11.50;99.90
37050;DHT22;22958;51.232;6.826;2023-03-14T08:42:48;11.50;99.90
37050;DHT22;22958;51.232;6.826;2023-03-14T08:45:15;11.50;99.90
37050;DHT22;22958;51.232;6.826;2023-03-14T08:47:42;11.50;99.90
37050;DHT22;22958;51.232;6.826;2023-03-14T08:50:08;11.30;99.90
37050;DHT22;22958;51.232;6.826;2023-03-14T08:52:34;11.10;99.90
37050;DHT22;22958;51.232;6.826;2023-03-14T08:55:00;11.00;99.90
37050;DHT22;22958;51.232;6.826;2023-03-14T08:57:26;11.00;99.90
37050;DHT22;22958;51.232;6.826;2023-03-14T08:59:55;10.80;99.90
37050;DHT22;22958;51.232;6.826;2023-03-14T09:02:21;10.70;99.90
37050;DHT22;22958;51.232;6.826;2023-03-14T09:04:46;10.60;99.90
37050;DHT22;22958;51.232;6.826;2023-03-14T09:07:12;10.50;99.90
37050;DHT22;22958;51.232;6.826;2023-03-14T09:09:37;10.40;99.90
37050;DHT22;22958;51.232;6.826;2023-03-14T09:12:03;10.40;99.90
37050;DHT22;22958;51.232;6.826;2023-03-14T09:14:30;10.40;99.90
37050;DHT22;22958;51.232;6.826;2023-03-14T09:16:56;10.40;99.90
37050;DHT22;22958;51.232;6.826;2023-03-14T09:19:21;10.50;99.90
37050;DHT22;22958;51.232;6.826;2023-03-14T09:21:47;10.40;99.90
37050;DHT22;22958;51.232;6.826;2023-03-14T09:24:12;10.40;99.90
37050;DHT22;22958;51.232;6.826;2023-03-14T09:26:38;10.30;99.90
37050;DHT22;22958;51.232;6.826;2023-03-14T09:29:04;9.90;99.90
37050;DHT22;22958;51.232;6.826;2023-03-14T09:31:29;9.40;99.90
37050;DHT22;22958;51.232;6.826;2023-03-14T09:33:55;9.20;99.90
37050;DHT22;22958;51.232;6.826;2023-03-14T09:36:21;9.00;99.90
37050;DHT22;22958;51.232;6.826;2023-03-14T09:38:46;8.80;99.90
37050;DHT22;22958;51.232;6.826;2023-03-14T09:41:36;8.60;99.90
37050;DHT22;22958;51.232;6.826;2023-03-14T09:44:08;8.50;99.90
37050;DHT22;22958;51.232;6.826;2023-03-14T09:46:37;8.40;99.90
37050;DHT22;22958;51.232;6.826;2023-03-14T09:49:03;8.30;99.90
37050;DHT22;22958;51.232;6.826;2023-03-14T09:51:34;8.30;99.90
37050;DHT22;22958;51.232;6.826;2023-03-14T09:54:01;8.30;99.90
37050;DHT22;22958;51.232;6.826;2023-03-14T09:56:29;8.40;99.90
37050;DHT22;22958;51.232;6.826;2023-03-14T09:58:59;8.40;99.90
37050;DHT22;22958;51.232;6.826;2023-03-14T10:01:27;8.30;99.90
37050;DHT22;22958;51.232;6.826;2023-03-14T10:03:59;8.30;99.90
37050;DHT22;22958;51.232;6.826;2023-03-14T10:06:28;8.30;99.90
37050;DHT22;22958;51.232;6.826;2023-03-14T10:08:54;8.40;99.90
37050;DHT22;22958;51.232;6.826;2023-03-14T10:11:22;8.40;99.90
37050;DHT22;22958;51.232;6.826;2023-03-14T10:14:10;8.40;99.90
37050;DHT22;22958;51.232;6.826;2023-03-14T10:16:45;8.40;99.90
37050;DHT22;22958;51.232;6.826;2023-03-14T10:19:13;8.50;99.90
37050;DHT22;22958;51.232;6.826;2023-03-14T10:22:00;8.50;99.90
37050;DHT22;22958;51.232;6.826;2023-03-14T10:24:29;8.50;99.90
37050;DHT22;22958;51.232;6.826;2023-03-14T10:26:59;8.50;99.90
37050;DHT22;22958;51.232;6.826;2023-03-14T10:29:28;8.60;99.90
37050;DHT22;22958;51.232;6.826;2023-03-14T10:31:55;8.60;99.90
37050;DHT22;22958;51.232;6.826;2023-03-14T10:34:28;8.60;99.90
37050;DHT22;22958;51.232;6.826;2023-03-14T10:36:59;8.60;99.90
37050;DHT22;22958;51.232;6.826;2023-03-14T10:39:30;8.60;99.90
37050;DHT22;22958;51.232;6.826;2023-03-14T10:42:21;8.60;99.90
37050;DHT22;22958;51.232;6.826;2023-03-14T10:44:51;8.70;99.90
37050;DHT22;22958;51.232;6.826;2023-03-14T10:47:23;8.70;99.90
37050;DHT22;22958;51.232;6.826;2023-03-14T10:49:49;8.70;99.90
37050;DHT22;22958;51.232;6.826;2023-03-14T10:52:26;8.80;99.90
37050;DHT22;22958;51.232;6.826;2023-03-14T10:54:57;8.80;99.90
37050;DHT22;22958;51.232;6.826;2023-03-14T10:57:24;8.70;99.90
37050;DHT22;22958;51.232;6.826;2023-03-14T10:59:49;8.50;99.90
37050;DHT22;22958;51.232;6.826;2023-03-14T11:02:42;8.40;99.90
37050;DHT22;22958;51.232;6.826;2023-03-14T11:05:21;7.70;99.90
37050;DHT22;22958;51.232;6.826;2023-03-14T11:07:48;7.40;99.90
37050;DHT22;22958;51.232;6.826;2023-03-14T11:13:07;7.40;99.90
37050;DHT22;22958;51.232;6.826;2023-03-14T11:24:00;7.40;99.90
37050;DHT22;22958;51.232;6.826;2023-03-14T11:29:20;7.10;99.90
37050;DHT22;22958;51.232;6.826;2023-03-14T11:31:46;7.10;99.90
37050;DHT22;22958;51.232;6.826;2023-03-14T11:34:27;7.10;99.90
37050;DHT22;22958;51.232;6.826;2023-03-14T11:36:59;7.00;99.90
37050;DHT22;22958;51.232;6.826;2023-03-14T11:39:34;7.10;99.90
37050;DHT22;22958;51.232;6.826;2023-03-14T11:42:02;7.10;99.90
37050;DHT22;22958;51.232;6.826;2023-03-14T11:44:34;7.20;99.90
37050;DHT22;22958;51.232;6.826;2023-03-14T11:49:46;7.30;99.90
37050;DHT22;22958;51.232;6.826;2023-03-14T11:52:44;7.30;99.90
37050;DHT22;22958;51.232;6.826;2023-03-14T11:55:20;7.30;99.90
37050;DHT22;22958;51.232;6.826;2023-03-14T11:57:51;7.30;99.90
37050;DHT22;22958;51.232;6.826;2023-03-14T12:00:21;7.30;99.90
37050;DHT22;22958;51.232;6.826;2023-03-14T12:03:11;7.30;99.90
37050;DHT22;22958;51.232;6.826;2023-03-14T12:06:26;7.30;99.90
37050;DHT22;22958;51.232;6.826;2023-03-14T12:08:50;7.30;99.90
37050;DHT22;22958;51.232;6.826;2023-03-14T12:14:02;7.20;99.90
37050;DHT22;22958;51.232;6.826;2023-03-14T12:16:37;7.20;99.90
37050;DHT22;22958;51.232;6.826;2023-03-14T12:19:27;7.10;99.90
37050;DHT22;22958;51.232;6.826;2023-03-14T12:22:40;7.00;99.90
37050;DHT22;22958;51.232;6.826;2023-03-14T12:24:49;7.20;99.90
37050;DHT22;22958;51.232;6.826;2023-03-14T12:38:10;8.60;99.90
37050;DHT22;22958;51.232;6.826;2023-03-14T12:40:56;8.40;99.90
37050;DHT22;22958;51.232;6.826;2023-03-14T12:43:29;8.10;99.90
37050;DHT22;22958;51.232;6.826;2023-03-14T12:46:20;8.00;99.90
37050;DHT22;22958;51.232;6.826;2023-03-14T12:48:54;7.90;99.90
37050;DHT22;22958;51.232;6.826;2023-03-14T12:51:35;7.80;99.90
37050;DHT22;22958;51.232;6.826;2023-03-14T12:57:03;8.10;99.90
37050;DHT22;22958;51.232;6.826;2023-03-14T13:02:21;7.40;99.90
37050;DHT22;22958;51.232;6.826;2023-03-14T13:05:00;6.80;99.90
37050;DHT22;22958;51.232;6.826;2023-03-14T13:10:18;6.60;99.90
37050;DHT22;22958;51.232;6.826;2023-03-14T13:12:51;6.70;99.90
37050;DHT22;22958;51.232;6.826;2023-03-14T13:16:24;7.00;99.90
37050;DHT22;22958;51.232;6.826;2023-03-14T13:18:37;7.30;99.90
37050;DHT22;22958;51.232;6.826;2023-03-14T13:21:18;7.30;99.90
37050;DHT22;22958;51.232;6.826;2023-03-14T13:24:04;7.50;99.90
37050;DHT22;22958;51.232;6.826;2023-03-14T13:26:42;7.20;99.90
37050;DHT22;22958;51.232;6.826;2023-03-14T13:29:30;7.40;99.90
37050;DHT22;22958;51.232;6.826;2023-03-14T13:31:58;8.20;99.90
37050;DHT22;22958;51.232;6.826;2023-03-14T13:34:34;8.40;99.90
37050;DHT22;22958;51.232;6.826;2023-03-14T13:37:00;8.20;99.90
37050;DHT22;22958;51.232;6.826;2023-03-14T13:39:27;8.30;99.90
37050;DHT22;22958;51.232;6.826;2023-03-14T13:41:58;8.10;99.90
37050;DHT22;22958;51.232;6.826;2023-03-14T13:44:30;7.60;99.90
37050;DHT22;22958;51.232;6.826;2023-03-14T13:47:05;7.40;99.90
37050;DHT22;22958;51.232;6.826;2023-03-14T13:49:33;7.10;99.90
37050;DHT22;22958;51.232;6.826;2023-03-14T13:52:01;6.90;99.90
37050;DHT22;22958;51.232;6.826;2023-03-14T13:54:27;6.50;99.90
37050;DHT22;22958;51.232;6.826;2023-03-14T13:57:06;6.30;99.90
37050;DHT22;22958;51.232;6.826;2023-03-14T13:59:33;6.40;99.90
37050;DHT22;22958;51.232;6.826;2023-03-14T14:02:03;6.60;99.90
37050;DHT22;22958;51.232;6.826;2023-03-14T14:04:32;6.80;99.90
37050;DHT22;22958;51.232;6.826;2023-03-14T14:07:06;7.10;99.90
37050;DHT22;22958;51.232;6.826;2023-03-14T14:09:40;7.60;99.90
37050;DHT22;22958;51.232;6.826;2023-03-14T14:12:10;8.50;99.90
37050;DHT22;22958;51.232;6.826;2023-03-14T14:14:46;10.70;99.90
37050;DHT22;22958;51.232;6.826;2023-03-14T14:17:17;13.40;99.90
37050;DHT22;22958;51.232;6.826;2023-03-14T14:19:46;13.80;99.90
37050;DHT22;22958;51.232;6.826;2023-03-14T14:22:12;14.70;99.90
37050;DHT22;22958;51.232;6.826;2023-03-14T14:24:38;12.00;99.90
37050;DHT22;22958;51.232;6.826;2023-03-14T14:27:18;10.90;99.90
37050;DHT22;22958;51.232;6.826;2023-03-14T14:30:21;10.30;99.90
37050;DHT22;22958;51.232;6.826;2023-03-14T14:32:50;10.10;99.90
37050;DHT22;22958;51.232;6.826;2023-03-14T14:35:32;9.50;99.90
37050;DHT22;22958;51.232;6.826;2023-03-14T14:37:58;8.80;99.90
37050;DHT22;22958;51.232;6.826;2023-03-14T14:40:26;8.70;99.90
37050;DHT22;22958;51.232;6.826;2023-03-14T14:42:53;8.70;99.90
37050;DHT22;22958;51.232;6.826;2023-03-14T14:45:21;8.60;99.90
37050;DHT22;22958;51.232;6.826;2023-03-14T14:47:57;8.70;99.90
37050;DHT22;22958;51.232;6.826;2023-03-14T14:50:28;8.70;99.90
37050;DHT22;22958;51.232;6.826;2023-03-14T14:52:57;8.80;99.90
37050;DHT22;22958;51.232;6.826;2023-03-14T14:55:31;8.90;99.90
37050;DHT22;22958;51.232;6.826;2023-03-14T14:57:57;8.90;99.90
37050;DHT22;22958;51.232;6.826;2023-03-14T15:00:25;8.80;99.90
37050;DHT22;22958;51.232;6.826;2023-03-14T15:02:58;8.60;99.90
37050;DHT22;22958;51.232;6.826;2023-03-14T15:05:26;8.70;99.90
37050;DHT22;22958;51.232;6.826;2023-03-14T15:07:53;8.70;99.90
37050;DHT22;22958;51.232;6.826;2023-03-14T15:10:22;8.70;99.90
37050;DHT22;22958;51.232;6.826;2023-03-14T15:12:48;8.90;99.90
37050;DHT22;22958;51.232;6.826;2023-03-14T15:15:15;9.10;99.90
37050;DHT22;22958;51.232;6.826;2023-03-14T15:17:41;9.20;99.90
37050;DHT22;22958;51.232;6.826;2023-03-14T15:20:13;9.40;99.90
37050;DHT22;22958;51.232;6.826;2023-03-14T15:22:39;10.20;99.90
37050;DHT22;22958;51.232;6.826;2023-03-14T15:25:06;9.70;99.90
37050;DHT22;22958;51.232;6.826;2023-03-14T15:27:32;9.50;99.90
37050;DHT22;22958;51.232;6.826;2023-03-14T15:29:58;9.10;99.90
37050;DHT22;22958;51.232;6.826;2023-03-14T15:32:24;9.00;99.90
37050;DHT22;22958;51.232;6.826;2023-03-14T15:34:53;8.80;99.90
37050;DHT22;22958;51.232;6.826;2023-03-14T15:37:19;8.80;99.90
37050;DHT22;22958;51.232;6.826;2023-03-14T15:39:45;8.80;99.90
37050;DHT22;22958;51.232;6.826;2023-03-14T15:42:11;8.80;99.90
37050;DHT22;22958;51.232;6.826;2023-03-14T15:44:37;8.60;99.90
37050;DHT22;22958;51.232;6.826;2023-03-14T15:47:03;8.50;99.90
37050;DHT22;22958;51.232;6.826;2023-03-14T15:49:28;8.40;99.90
37050;DHT22;22958;51.232;6.826;2023-03-14T15:51:54;8.40;99.90
37050;DHT22;22958;51.232;6.826;2023-03-14T15:54:20;8.30;99.90
37050;DHT22;22958;51.232;6.826;2023-03-14T15:56:45;8.20;99.90
37050;DHT22;22958;51.232;6.826;2023-03-14T15:59:11;8.20;99.90
37050;DHT22;22958;51.232;6.826;2023-03-14T16:01:36;8.20;99.90
37050;DHT22;22958;51.232;6.826;2023-03-14T16:04:02;8.10;99.90
37050;DHT22;22958;51.232;6.826;2023-03-14T16:06:28;8.10;99.90
37050;DHT22;22958;51.232;6.826;2023-03-14T16:08:56;8.00;99.90
37050;DHT22;22958;51.232;6.826;2023-03-14T16:11:21;8.00;99.90
37050;DHT22;22958;51.232;6.826;2023-03-14T16:13:47;8.00;99.90
37050;DHT22;22958;51.232;6.826;2023-03-14T16:16:13;8.00;99.90
37050;DHT22;22958;51.232;6.826;2023-03-14T16:18:39;7.90;99.90
37050;DHT22;22958;51.232;6.826;2023-03-14T16:21:13;7.80;99.90
37050;DHT22;22958;51.232;6.826;2023-03-14T16:23:38;7.80;99.90
37050;DHT22;22958;51.232;6.826;2023-03-14T16:26:06;7.80;99.90
37050;DHT22;22958;51.232;6.826;2023-03-14T16:28:32;7.80;99.90
37050;DHT22;22958;51.232;6.826;2023-03-14T16:31:09;7.80;99.90
37050;DHT22;22958;51.232;6.826;2023-03-14T16:33:37;7.70;99.90
37050;DHT22;22958;51.232;6.826;2023-03-14T16:36:05;7.70;99.90